Crosby, United Kingdom
Current Conditions -  °F | °C
As of 1:50 PM on Thursday 23 Oct 2014 (Local Time) from EGGP Reporting Station
Broken Clouds Broken Clouds  
Wind Chill: 61°   Ceiling: 2800
Heat Index: 61°   Visibility: 6mi
Dew Point: 55°   Wind: 10mph
Humidity: 82%   Direction: 190°S
Pressure: 29.91"   Gusts: NA
Location:  53.49°N, 3.03°W
Report Text: EGGP 231250Z 19009KT 9999 FEW024 BKN028 16/13 Q1013
Loading
Personal Weather Stations






























Interactive Weather Map
Tropical Storm Tracking
New forecast layout! Learn more

10-Day Weather Forecast

Advertisements
Track Severe Weather on mobile